Time;durP1;ratioP1;P1;durP2;ratioP2;P2;SDS_P1;SDS_P2;PMS_P1;PMS_P2;Temp;Humidity;BMP_temperature;BMP_pressure;BME280_temperature;BME280_humidity;BME280_pressure;Samples;Min_cycle;Max_cycle;Signal;HPM_P1;HPM_P2
2022/01/09 00:00:22;;;;;;;3.47;1.55;;;;;;;;;;4964687;28;20484;-78
2022/01/09 00:03:06;;;;;;;2.72;1.63;;;;;;;;;;4984287;28;20038;-80
2022/01/09 00:05:33;;;;;;;3.03;1.63;;;;;;;;;;4990845;28;20062;-79
2022/01/09 00:07:59;;;;;;;5.47;1.80;;;;;;;;;;4985923;28;20572;-81
2022/01/09 00:10:30;;;;;;;5.82;1.75;;;;;;;;;;4976387;28;20051;-80
2022/01/09 00:12:58;;;;;;;5.75;1.85;;;;;;;;;;4981867;28;20078;-81
2022/01/09 00:15:24;;;;;;;2.78;1.95;;;;;;;;;;4961538;28;20516;-79
2022/01/09 00:17:51;;;;;;;4.95;1.70;;;;;;;;;;4979936;28;20070;-80
2022/01/09 00:20:17;;;;;;;3.10;2.00;;;;;;;;;;4981673;28;20548;-81
2022/01/09 00:22:49;;;;;;;4.22;1.65;;;;;;;;;;4983210;28;20677;-79
2022/01/09 00:25:27;;;;;;;4.00;2.03;;;;;;;;;;4963074;28;20424;-80
2022/01/09 00:27:54;;;;;;;4.35;2.00;;;;;;;;;;4979011;28;20985;-77
2022/01/09 00:30:23;;;;;;;4.05;1.95;;;;;;;;;;4971721;28;20054;-75
2022/01/09 00:32:51;;;;;;;3.40;1.77;;;;;;;;;;4954322;28;20139;-78
2022/01/09 00:35:17;;;;;;;4.47;1.63;;;;;;;;;;4940123;28;20703;-80
2022/01/09 00:37:44;;;;;;;3.22;1.80;;;;;;;;;;4962041;28;20054;-82
2022/01/09 00:40:12;;;;;;;3.13;1.85;;;;;;;;;;4977911;28;20085;-79
2022/01/09 00:42:39;;;;;;;5.90;1.90;;;;;;;;;;4956069;28;20141;-80
2022/01/09 00:45:06;;;;;;;4.93;2.10;;;;;;;;;;4961681;28;20046;-77
2022/01/09 00:47:33;;;;;;;5.13;1.70;;;;;;;;;;4975273;28;20053;-79
2022/01/09 00:49:59;;;;;;;5.10;2.20;;;;;;;;;;4964913;28;20112;-79
2022/01/09 00:52:25;;;;;;;3.97;1.67;;;;;;;;;;4975039;28;20053;-80
2022/01/09 00:54:51;;;;;;;2.72;1.90;;;;;;;;;;4961192;28;20053;-80
2022/01/09 00:57:17;;;;;;;3.30;1.80;;;;;;;;;;4938486;28;20665;-81
2022/01/09 00:59:44;;;;;;;2.03;1.40;;;;;;;;;;4977042;28;20050;-79
2022/01/09 01:02:10;;;;;;;5.38;1.75;;;;;;;;;;4959136;28;20140;-80
2022/01/09 01:04:38;;;;;;;4.00;1.70;;;;;;;;;;4981301;28;20035;-81
2022/01/09 01:07:04;;;;;;;3.15;1.90;;;;;;;;;;4979065;28;20062;-79
2022/01/09 01:09:31;;;;;;;7.88;2.33;;;;;;;;;;4984398;28;20050;-80
2022/01/09 01:12:02;;;;;;;4.25;1.98;;;;;;;;;;4942037;28;20080;-80
2022/01/09 01:14:28;;;;;;;2.67;1.70;;;;;;;;;;4971032;28;20593;-79
2022/01/09 01:16:55;;;;;;;2.80;1.70;;;;;;;;;;4944981;28;20366;-80
2022/01/09 01:19:21;;;;;;;6.05;2.30;;;;;;;;;;4977608;28;20058;-80
2022/01/09 01:21:47;;;;;;;4.82;2.10;;;;;;;;;;4977518;28;20050;-78
2022/01/09 01:24:13;;;;;;;6.32;2.13;;;;;;;;;;4970445;28;20224;-79
2022/01/09 01:26:39;;;;;;;3.20;1.90;;;;;;;;;;4973756;28;20505;-77
2022/01/09 01:29:06;;;;;;;9.15;2.08;;;;;;;;;;4958243;28;20050;-79
2022/01/09 01:31:32;;;;;;;3.55;1.90;;;;;;;;;;4954708;28;20095;-79
2022/01/09 01:33:58;;;;;;;4.10;1.65;;;;;;;;;;4973821;28;20050;-78
2022/01/09 01:36:24;;;;;;;6.95;2.20;;;;;;;;;;4962067;28;20126;-80
2022/01/09 01:38:50;;;;;;;3.35;1.98;;;;;;;;;;4972906;28;20066;-79
2022/01/09 01:41:17;;;;;;;3.50;1.80;;;;;;;;;;4974229;28;20042;-79
2022/01/09 01:43:43;;;;;;;4.28;2.00;;;;;;;;;;4976004;28;20050;-79
2022/01/09 01:46:09;;;;;;;3.47;1.83;;;;;;;;;;4975389;28;20065;-77
2022/01/09 01:48:36;;;;;;;3.22;2.03;;;;;;;;;;4951025;28;20043;-79
2022/01/09 01:51:02;;;;;;;7.22;3.33;;;;;;;;;;4970598;28;20046;-79
2022/01/09 01:53:29;;;;;;;4.22;2.20;;;;;;;;;;4952842;28;20567;-78
2022/01/09 01:55:57;;;;;;;3.92;1.98;;;;;;;;;;4965090;28;20046;-79
2022/01/09 01:58:25;;;;;;;3.33;1.95;;;;;;;;;;4966952;28;20046;-79
2022/01/09 02:00:52;;;;;;;2.72;1.92;;;;;;;;;;4951594;28;20125;-77
2022/01/09 02:03:19;;;;;;;9.57;2.28;;;;;;;;;;4969228;28;20055;-81
2022/01/09 02:05:46;;;;;;;6.03;2.20;;;;;;;;;;4979341;28;20687;-80
2022/01/09 02:08:14;;;;;;;7.10;2.20;;;;;;;;;;4956811;28;20390;-81
2022/01/09 02:10:42;;;;;;;4.47;2.40;;;;;;;;;;4973270;28;20170;-79
2022/01/09 02:13:09;;;;;;;5.28;2.30;;;;;;;;;;4955410;28;20074;-79
2022/01/09 02:15:43;;;;;;;3.33;2.08;;;;;;;;;;4973117;28;20055;-79
2022/01/09 02:18:16;;;;;;;6.50;2.75;;;;;;;;;;4979149;28;20755;-80
2022/01/09 02:20:42;;;;;;;3.05;2.25;;;;;;;;;;4977220;28;20605;-80
2022/01/09 02:23:11;;;;;;;3.40;2.10;;;;;;;;;;4959540;28;20055;-78
2022/01/09 02:25:39;;;;;;;9.10;2.30;;;;;;;;;;4968443;28;20303;-79
2022/01/09 02:28:07;;;;;;;4.38;2.05;;;;;;;;;;4980203;28;20051;-79
2022/01/09 02:30:35;;;;;;;3.95;2.10;;;;;;;;;;4977856;28;20035;-79
2022/01/09 02:33:03;;;;;;;4.68;2.22;;;;;;;;;;4973525;28;20059;-79
2022/01/09 02:35:29;;;;;;;3.20;1.80;;;;;;;;;;4958562;28;20382;-79
2022/01/09 02:37:56;;;;;;;3.47;2.00;;;;;;;;;;4973352;28;20548;-81
2022/01/09 02:40:23;;;;;;;3.55;1.77;;;;;;;;;;4973944;28;20062;-81
2022/01/09 02:42:51;;;;;;;11.70;1.90;;;;;;;;;;4979746;28;20050;-77
2022/01/09 02:45:20;;;;;;;3.75;1.98;;;;;;;;;;4964009;28;20987;-78
2022/01/09 02:47:51;;;;;;;2.40;1.60;;;;;;;;;;4987072;28;20105;-79
2022/01/09 02:58:49;;;;;;;4.57;1.98;;;;;;;;;;5035275;28;20053;-69
2022/01/09 03:01:15;;;;;;;4.55;1.92;;;;;;;;;;5016264;28;20064;-68
2022/01/09 03:03:41;;;;;;;3.40;1.92;;;;;;;;;;5039667;28;20103;-76
2022/01/09 03:06:09;;;;;;;3.80;2.20;;;;;;;;;;5040089;28;20052;-78
2022/01/09 03:08:35;;;;;;;3.20;1.70;;;;;;;;;;5039721;28;20051;-70
2022/01/09 03:11:01;;;;;;;4.72;1.83;;;;;;;;;;5014704;28;20478;-75
2022/01/09 03:13:28;;;;;;;2.97;2.05;;;;;;;;;;5038782;28;20041;-76
2022/01/09 03:15:54;;;;;;;2.83;1.87;;;;;;;;;;5019622;28;20053;-74
2022/01/09 03:18:20;;;;;;;4.32;1.83;;;;;;;;;;5018687;28;20061;-77
2022/01/09 03:20:46;;;;;;;6.28;2.33;;;;;;;;;;5019680;28;20824;-76
2022/01/09 03:23:13;;;;;;;6.25;2.30;;;;;;;;;;5017532;28;20078;-72
2022/01/09 03:25:39;;;;;;;7.53;2.90;;;;;;;;;;5033624;28;20662;-69
2022/01/09 03:28:05;;;;;;;6.10;2.42;;;;;;;;;;5036873;28;20556;-70
2022/01/09 03:30:32;;;;;;;4.75;2.58;;;;;;;;;;5036404;28;20515;-76
2022/01/09 03:32:58;;;;;;;5.88;2.53;;;;;;;;;;5005552;28;20135;-78
2022/01/09 03:35:26;;;;;;;5.22;1.95;;;;;;;;;;5002668;28;20057;-73
2022/01/09 03:37:53;;;;;;;5.72;2.30;;;;;;;;;;5018351;28;20061;-77
2022/01/09 03:40:22;;;;;;;4.45;2.53;;;;;;;;;;5039534;28;20088;-76
2022/01/09 03:42:51;;;;;;;4.70;2.55;;;;;;;;;;5018446;28;20453;-68
2022/01/09 03:45:18;;;;;;;6.90;2.67;;;;;;;;;;5039588;28;20071;-72
2022/01/09 03:47:44;;;;;;;4.57;2.20;;;;;;;;;;5023774;28;20049;-71
2022/01/09 03:50:13;;;;;;;4.55;2.40;;;;;;;;;;5038430;28;20056;-73
2022/01/09 03:52:40;;;;;;;5.15;2.63;;;;;;;;;;5012314;28;20178;-69
2022/01/09 03:55:09;;;;;;;5.38;2.42;;;;;;;;;;5017125;28;20059;-74
2022/01/09 03:57:36;;;;;;;7.25;2.35;;;;;;;;;;5038706;28;20049;-69
2022/01/09 04:00:05;;;;;;;6.45;2.28;;;;;;;;;;5035929;28;20049;-75
2022/01/09 04:02:31;;;;;;;4.65;2.45;;;;;;;;;;5016241;28;20153;-81
2022/01/09 04:04:57;;;;;;;3.30;2.40;;;;;;;;;;5017056;28;20041;-76
2022/01/09 04:07:23;;;;;;;3.63;2.20;;;;;;;;;;5013945;28;20080;-71
2022/01/09 04:09:49;;;;;;;3.90;2.13;;;;;;;;;;5036073;28;20050;-70
2022/01/09 04:12:29;;;;;;;5.70;2.40;;;;;;;;;;5036524;28;20044;-76
2022/01/09 04:14:56;;;;;;;6.78;2.20;;;;;;;;;;5004333;28;20049;-75
2022/01/09 04:17:37;;;;;;;3.55;1.92;;;;;;;;;;5039543;28;20064;-73
2022/01/09 04:20:05;;;;;;;4.72;2.10;;;;;;;;;;5037609;28;20044;-77
2022/01/09 04:22:32;;;;;;;4.47;2.42;;;;;;;;;;5017690;28;20041;-74
2022/01/09 04:24:58;;;;;;;4.20;2.45;;;;;;;;;;5018435;28;20049;-73
2022/01/09 04:27:24;;;;;;;6.80;2.25;;;;;;;;;;5019131;28;20138;-75
2022/01/09 04:29:50;;;;;;;4.70;2.60;;;;;;;;;;5016419;28;20053;-69
2022/01/09 04:32:16;;;;;;;3.28;2.35;;;;;;;;;;5014497;28;20554;-69
2022/01/09 04:34:43;;;;;;;4.53;2.15;;;;;;;;;;5034668;28;20280;-71
2022/01/09 04:37:10;;;;;;;4.75;1.92;;;;;;;;;;5037428;28;20041;-71
2022/01/09 04:39:36;;;;;;;3.70;2.42;;;;;;;;;;5035946;28;20437;-75
2022/01/09 04:42:02;;;;;;;7.63;2.10;;;;;;;;;;5014707;28;20041;-75
2022/01/09 04:44:28;;;;;;;5.70;2.00;;;;;;;;;;5002474;28;20497;-71
2022/01/09 04:47:00;;;;;;;4.10;2.30;;;;;;;;;;5036736;28;20211;-76
2022/01/09 04:49:37;;;;;;;5.00;1.95;;;;;;;;;;5017409;28;21396;-80
2022/01/09 04:52:06;;;;;;;7.95;2.20;;;;;;;;;;4997165;28;20104;-74
2022/01/09 04:54:32;;;;;;;3.80;2.00;;;;;;;;;;5017729;28;20055;-74
2022/01/09 04:57:01;;;;;;;4.43;2.13;;;;;;;;;;5038733;28;20493;-69
2022/01/09 04:59:30;;;;;;;3.22;1.90;;;;;;;;;;5040195;28;20140;-74
2022/01/09 05:01:57;;;;;;;6.38;2.17;;;;;;;;;;5034710;28;20063;-77
2022/01/09 05:04:23;;;;;;;6.07;2.40;;;;;;;;;;5013351;28;20054;-76
2022/01/09 05:06:49;;;;;;;4.43;2.00;;;;;;;;;;5035533;28;20052;-71
2022/01/09 05:09:16;;;;;;;5.18;2.05;;;;;;;;;;5016401;28;20089;-71
2022/01/09 05:11:42;;;;;;;3.67;2.03;;;;;;;;;;5015729;28;20053;-69
2022/01/09 05:14:08;;;;;;;2.95;1.88;;;;;;;;;;4997876;28;20063;-73
2022/01/09 05:16:34;;;;;;;2.55;1.85;;;;;;;;;;5016323;28;20125;-76
2022/01/09 05:19:06;;;;;;;3.50;2.17;;;;;;;;;;4997695;28;20069;-75
2022/01/09 05:21:33;;;;;;;3.38;2.00;;;;;;;;;;5038330;28;20386;-72
2022/01/09 05:23:59;;;;;;;4.38;2.20;;;;;;;;;;5033185;28;20509;-74
2022/01/09 05:26:25;;;;;;;3.88;1.75;;;;;;;;;;5017652;28;20530;-74
2022/01/09 05:28:52;;;;;;;3.70;2.05;;;;;;;;;;5036089;28;20056;-71
2022/01/09 05:31:18;;;;;;;5.55;2.20;;;;;;;;;;5000483;28;20056;-70
2022/01/09 05:33:44;;;;;;;6.75;2.33;;;;;;;;;;5037957;28;20048;-72
2022/01/09 05:36:10;;;;;;;3.88;1.95;;;;;;;;;;4999428;28;20105;-70
2022/01/09 05:38:36;;;;;;;7.93;2.13;;;;;;;;;;5016792;28;20120;-75
2022/01/09 05:41:03;;;;;;;3.72;1.98;;;;;;;;;;5038356;28;20183;-72
2022/01/09 05:43:30;;;;;;;5.57;2.00;;;;;;;;;;5015696;28;20131;-73
2022/01/09 05:45:56;;;;;;;4.57;1.90;;;;;;;;;;5038620;28;20182;-74
2022/01/09 05:48:22;;;;;;;4.28;1.80;;;;;;;;;;5019744;28;20085;-70
2022/01/09 05:50:48;;;;;;;4.97;2.08;;;;;;;;;;5039614;28;20052;-68
2022/01/09 05:53:15;;;;;;;3.38;1.88;;;;;;;;;;5039168;28;20494;-70
2022/01/09 05:55:41;;;;;;;3.63;1.85;;;;;;;;;;5042434;28;20279;-69
2022/01/09 05:58:08;;;;;;;3.55;1.83;;;;;;;;;;5043897;28;20102;-71
2022/01/09 06:00:34;;;;;;;4.35;2.03;;;;;;;;;;5040527;28;20076;-74
2022/01/09 06:03:01;;;;;;;4.45;1.90;;;;;;;;;;5041168;28;20173;-72
2022/01/09 06:05:27;;;;;;;3.60;1.73;;;;;;;;;;5035309;28;20114;-72
2022/01/09 06:07:54;;;;;;;3.78;1.80;;;;;;;;;;5035835;28;20136;-77
2022/01/09 06:10:20;;;;;;;7.78;2.13;;;;;;;;;;5034824;28;20398;-77
2022/01/09 06:12:46;;;;;;;3.42;2.10;;;;;;;;;;5037554;28;20148;-72
2022/01/09 06:15:14;;;;;;;4.28;2.22;;;;;;;;;;5016356;28;20063;-69
2022/01/09 06:17:42;;;;;;;4.30;1.95;;;;;;;;;;5041007;28;20045;-75
2022/01/09 06:20:10;;;;;;;5.07;2.10;;;;;;;;;;5018928;28;20144;-71
2022/01/09 06:22:36;;;;;;;5.30;2.10;;;;;;;;;;5017067;28;20053;-81
2022/01/09 06:25:03;;;;;;;3.40;1.77;;;;;;;;;;5019406;28;20051;-71
2022/01/09 06:27:30;;;;;;;3.42;2.00;;;;;;;;;;5043727;28;20131;-77
2022/01/09 06:29:57;;;;;;;3.67;2.05;;;;;;;;;;5040271;28;20053;-73
2022/01/09 06:32:23;;;;;;;2.92;1.90;;;;;;;;;;5017149;28;20824;-83
2022/01/09 06:34:49;;;;;;;5.13;1.92;;;;;;;;;;5017723;28;20482;-67
2022/01/09 06:37:16;;;;;;;4.70;1.98;;;;;;;;;;5014307;28;20087;-72
2022/01/09 06:39:44;;;;;;;2.97;1.63;;;;;;;;;;5016225;28;20045;-81
2022/01/09 06:42:11;;;;;;;3.92;2.15;;;;;;;;;;5035967;28;20064;-71
2022/01/09 06:44:37;;;;;;;4.38;1.80;;;;;;;;;;5013466;28;20434;-74
2022/01/09 06:47:03;;;;;;;3.50;1.88;;;;;;;;;;5033957;28;22178;-72
2022/01/09 06:49:30;;;;;;;2.72;1.70;;;;;;;;;;5036814;28;20102;-75
2022/01/09 06:51:56;;;;;;;5.20;2.13;;;;;;;;;;5012752;28;20053;-75
2022/01/09 06:54:22;;;;;;;3.80;1.77;;;;;;;;;;5013484;28;20045;-74
2022/01/09 06:56:49;;;;;;;3.92;2.25;;;;;;;;;;5014469;28;20057;-75
2022/01/09 06:59:15;;;;;;;4.65;1.90;;;;;;;;;;5039008;28;20053;-71
2022/01/09 07:01:42;;;;;;;3.55;1.88;;;;;;;;;;5030485;28;20124;-77
2022/01/09 07:04:08;;;;;;;4.80;2.00;;;;;;;;;;5034994;28;20467;-73
2022/01/09 07:06:35;;;;;;;4.28;2.08;;;;;;;;;;5002474;28;20043;-73
2022/01/09 07:09:03;;;;;;;4.90;2.08;;;;;;;;;;5013719;28;20494;-76
2022/01/09 07:11:30;;;;;;;4.82;1.83;;;;;;;;;;5037695;28;20048;-72
2022/01/09 07:13:56;;;;;;;5.03;1.90;;;;;;;;;;5019370;28;20088;-72
2022/01/09 07:16:23;;;;;;;3.45;1.77;;;;;;;;;;5039556;28;20432;-74
2022/01/09 07:18:49;;;;;;;3.45;2.00;;;;;;;;;;5037621;28;20584;-73
2022/01/09 07:21:16;;;;;;;6.47;2.00;;;;;;;;;;5039786;28;20073;-69
2022/01/09 07:23:42;;;;;;;3.95;1.70;;;;;;;;;;5028563;28;20160;-77
2022/01/09 07:26:08;;;;;;;4.00;2.00;;;;;;;;;;5031987;28;20470;-68
2022/01/09 07:28:35;;;;;;;13.68;2.22;;;;;;;;;;5032347;28;20123;-72
2022/01/09 07:31:02;;;;;;;5.18;2.95;;;;;;;;;;5015274;28;20159;-78
2022/01/09 07:33:30;;;;;;;3.45;1.80;;;;;;;;;;5032136;28;20061;-68
2022/01/09 07:35:57;;;;;;;2.33;1.80;;;;;;;;;;5035412;28;20057;-75
2022/01/09 07:38:23;;;;;;;5.28;2.15;;;;;;;;;;5016449;28;20053;-70
2022/01/09 07:40:51;;;;;;;5.00;1.83;;;;;;;;;;5033017;28;20088;-76
2022/01/09 07:43:18;;;;;;;3.58;1.85;;;;;;;;;;5011435;28;20107;-73
2022/01/09 07:45:44;;;;;;;3.85;2.10;;;;;;;;;;5017620;28;20283;-76
2022/01/09 07:48:10;;;;;;;4.32;1.70;;;;;;;;;;5017257;28;20372;-71
2022/01/09 07:50:37;;;;;;;3.00;1.98;;;;;;;;;;5038020;28;20048;-73
2022/01/09 07:53:04;;;;;;;3.67;2.10;;;;;;;;;;5029749;28;20049;-76
2022/01/09 07:55:30;;;;;;;6.70;1.90;;;;;;;;;;5016132;28;20044;-76
2022/01/09 07:57:57;;;;;;;4.28;2.20;;;;;;;;;;5004558;28;20080;-77
2022/01/09 08:00:23;;;;;;;7.53;1.90;;;;;;;;;;5017378;28;20041;-70
2022/01/09 08:02:51;;;;;;;4.88;1.70;;;;;;;;;;4998312;28;20052;-74
2022/01/09 08:05:18;;;;;;;4.18;2.10;;;;;;;;;;5021736;28;20108;-73
2022/01/09 08:07:44;;;;;;;4.38;2.22;;;;;;;;;;5002451;28;20463;-68
2022/01/09 08:10:11;;;;;;;4.43;1.77;;;;;;;;;;5013522;28;20052;-74
2022/01/09 08:12:38;;;;;;;8.48;1.90;;;;;;;;;;5019498;28;20064;-82
2022/01/09 08:15:05;;;;;;;4.55;2.15;;;;;;;;;;5022321;28;20443;-83
2022/01/09 08:17:31;;;;;;;6.93;2.10;;;;;;;;;;5004290;28;20513;-78
2022/01/09 08:19:58;;;;;;;4.57;1.70;;;;;;;;;;5003690;28;20080;-72
2022/01/09 08:22:29;;;;;;;6.50;2.00;;;;;;;;;;5019008;28;20083;-71
2022/01/09 08:24:56;;;;;;;5.90;1.67;;;;;;;;;;5004898;28;20050;-76
2022/01/09 08:27:22;;;;;;;4.28;1.83;;;;;;;;;;5023067;28;20048;-71
2022/01/09 08:29:49;;;;;;;9.63;2.13;;;;;;;;;;5005844;28;20060;-71
2022/01/09 08:32:15;;;;;;;5.53;2.20;;;;;;;;;;5020766;28;20137;-69
2022/01/09 08:34:41;;;;;;;4.20;2.40;;;;;;;;;;5006578;28;20049;-74
2022/01/09 08:37:11;;;;;;;11.82;2.40;;;;;;;;;;5023718;28;20442;-77
2022/01/09 08:39:40;;;;;;;3.22;2.17;;;;;;;;;;5027176;28;20061;-69
2022/01/09 08:42:07;;;;;;;5.95;2.10;;;;;;;;;;5009911;28;20049;-67
2022/01/09 08:44:33;;;;;;;6.28;2.28;;;;;;;;;;5009595;28;20129;-70
2022/01/09 08:46:59;;;;;;;4.35;2.15;;;;;;;;;;4994043;28;20500;-71
2022/01/09 08:49:25;;;;;;;3.83;2.30;;;;;;;;;;5011539;28;20049;-68
2022/01/09 08:51:53;;;;;;;4.60;2.20;;;;;;;;;;5012108;28;20066;-70
2022/01/09 08:54:19;;;;;;;3.85;2.00;;;;;;;;;;5013257;28;20491;-69
2022/01/09 08:56:45;;;;;;;6.22;2.20;;;;;;;;;;5030058;28;20068;-69
2022/01/09 08:59:12;;;;;;;3.20;2.22;;;;;;;;;;5015052;28;20103;-71
2022/01/09 09:01:39;;;;;;;4.10;2.05;;;;;;;;;;5014147;28;20049;-70
2022/01/09 09:04:06;;;;;;;6.25;2.30;;;;;;;;;;5031840;28;20491;-70
2022/01/09 09:14:20;;;;;;;3.53;1.90;;;;;;;;;;5345853;22;20531;-71
2022/01/09 09:16:47;;;;;;;5.32;2.25;;;;;;;;;;5031967;28;20131;-69
2022/01/09 09:19:13;;;;;;;4.20;2.10;;;;;;;;;;5009458;28;20187;-74
2022/01/09 09:21:39;;;;;;;4.60;2.00;;;;;;;;;;4997706;28;20065;-71
2022/01/09 09:24:05;;;;;;;5.97;2.10;;;;;;;;;;5015989;28;20076;-69
2022/01/09 09:26:31;;;;;;;5.28;2.00;;;;;;;;;;4994270;28;20502;-69
2022/01/09 09:28:58;;;;;;;4.75;2.03;;;;;;;;;;5015578;28;20052;-71
2022/01/09 09:33:55;;;;;;;3.88;1.90;;;;;;;;;;5087964;22;20050;-70
2022/01/09 09:36:24;;;;;;;3.60;2.00;;;;;;;;;;5015441;28;20123;-72
2022/01/09 09:38:51;;;;;;;3.90;1.98;;;;;;;;;;5002062;28;20140;-71
2022/01/09 09:41:20;;;;;;;6.80;2.50;;;;;;;;;;5013019;28;20089;-72
2022/01/09 09:43:46;;;;;;;4.10;2.20;;;;;;;;;;5006546;28;20069;-72
2022/01/09 09:46:14;;;;;;;7.85;2.40;;;;;;;;;;5015610;28;20050;-70
2022/01/09 09:48:40;;;;;;;4.10;2.20;;;;;;;;;;5015682;28;20081;-70
2022/01/09 09:51:07;;;;;;;3.70;1.90;;;;;;;;;;5015818;28;20051;-72
2022/01/09 09:53:33;;;;;;;3.78;2.28;;;;;;;;;;5009273;28;20074;-82
2022/01/09 09:55:59;;;;;;;8.43;2.00;;;;;;;;;;5014792;28;20120;-71
2022/01/09 09:58:27;;;;;;;5.10;2.00;;;;;;;;;;5010031;28;20490;-70
2022/01/09 10:00:55;;;;;;;5.03;1.83;;;;;;;;;;5001817;28;20515;-76
2022/01/09 10:03:29;;;;;;;7.93;2.30;;;;;;;;;;5000985;28;20052;-72
2022/01/09 10:05:56;;;;;;;5.70;2.20;;;;;;;;;;5000513;28;20057;-72
2022/01/09 10:08:35;;;;;;;4.72;1.90;;;;;;;;;;5013827;28;20049;-72
2022/01/09 10:11:14;;;;;;;5.53;1.90;;;;;;;;;;5005578;28;20204;-71
2022/01/09 10:13:40;;;;;;;3.60;2.00;;;;;;;;;;5011962;28;20046;-70
2022/01/09 10:16:08;;;;;;;3.10;2.00;;;;;;;;;;5013445;28;20058;-72
2022/01/09 10:18:46;;;;;;;5.70;1.90;;;;;;;;;;5002780;28;20090;-79
2022/01/09 10:21:15;;;;;;;4.97;1.65;;;;;;;;;;5005810;28;20061;-72
2022/01/09 10:24:05;;;;;;;3.10;1.80;;;;;;;;;;5002308;28;20053;-71
2022/01/09 10:26:37;;;;;;;7.60;2.17;;;;;;;;;;4998608;28;20050;-82
2022/01/09 10:29:05;;;;;;;6.25;1.90;;;;;;;;;;5008142;28;20058;-76
2022/01/09 10:31:52;;;;;;;4.82;1.92;;;;;;;;;;5003194;28;20479;-78
2022/01/09 10:34:18;;;;;;;5.03;2.08;;;;;;;;;;5010169;28;20415;-70
2022/01/09 10:36:51;;;;;;;4.13;1.70;;;;;;;;;;5013256;28;20049;-72
2022/01/09 10:39:21;;;;;;;4.38;1.95;;;;;;;;;;5008633;28;20114;-77
2022/01/09 10:42:05;;;;;;;5.95;2.33;;;;;;;;;;5010642;28;20045;-70
2022/01/09 10:44:34;;;;;;;5.15;2.15;;;;;;;;;;5005594;28;20057;-73
2022/01/09 10:47:02;;;;;;;3.47;1.52;;;;;;;;;;5002922;28;20050;-71
2022/01/09 10:49:41;;;;;;;6.00;2.00;;;;;;;;;;5006947;28;20042;-73
2022/01/09 10:52:25;;;;;;;6.55;2.42;;;;;;;;;;5007885;28;20434;-75
2022/01/09 10:54:53;;;;;;;7.47;2.10;;;;;;;;;;5004321;28;20053;-79
2022/01/09 10:57:24;;;;;;;4.65;1.88;;;;;;;;;;5002164;28;20068;-71
2022/01/09 10:59:51;;;;;;;3.47;2.05;;;;;;;;;;4983952;28;20050;-70
2022/01/09 11:02:19;;;;;;;3.45;1.92;;;;;;;;;;5005549;28;20050;-70
2022/01/09 11:04:47;;;;;;;4.15;1.98;;;;;;;;;;4989028;28;20058;-69
2022/01/09 11:07:14;;;;;;;3.47;2.00;;;;;;;;;;5004858;28;20054;-71
2022/01/09 11:09:44;;;;;;;4.90;2.20;;;;;;;;;;5004881;28;20133;-82
2022/01/09 11:12:16;;;;;;;4.90;2.05;;;;;;;;;;5000818;28;20175;-73
2022/01/09 11:14:43;;;;;;;5.80;1.73;;;;;;;;;;5001126;28;20515;-71
2022/01/09 11:17:09;;;;;;;7.70;1.90;;;;;;;;;;4993366;28;20054;-72
2022/01/09 11:19:37;;;;;;;4.45;1.95;;;;;;;;;;4982044;28;20081;-75
2022/01/09 11:22:10;;;;;;;8.43;1.92;;;;;;;;;;4996919;28;20058;-76
2022/01/09 11:24:49;;;;;;;7.13;1.80;;;;;;;;;;4994659;28;20134;-75
2022/01/09 11:27:19;;;;;;;6.25;2.10;;;;;;;;;;5008950;28;20046;-76
2022/01/09 11:30:17;;;;;;;4.72;1.73;;;;;;;;;;4992652;28;20068;-76
2022/01/09 11:33:01;;;;;;;4.28;1.88;;;;;;;;;;4989411;28;20519;-77
2022/01/09 11:36:05;;;;;;;10.35;1.70;;;;;;;;;;4996005;28;20565;-82
2022/01/09 11:38:39;;;;;;;6.78;1.80;;;;;;;;;;4996744;28;20181;-82
2022/01/09 11:41:18;;;;;;;5.32;1.50;;;;;;;;;;5005030;28;20058;-76
2022/01/09 11:43:59;;;;;;;2.67;1.50;;;;;;;;;;4996070;28;20084;-70
2022/01/09 11:46:28;;;;;;;6.20;2.20;;;;;;;;;;4997095;28;20264;-75
2022/01/09 11:48:54;;;;;;;3.42;1.70;;;;;;;;;;4992168;28;20085;-69
2022/01/09 11:51:27;;;;;;;9.95;2.00;;;;;;;;;;4994344;28;20117;-73
2022/01/09 11:54:11;;;;;;;4.95;1.60;;;;;;;;;;4998802;28;20078;-71
2022/01/09 11:56:54;;;;;;;6.47;1.90;;;;;;;;;;4999004;28;20108;-73
2022/01/09 11:59:40;;;;;;;5.35;1.70;;;;;;;;;;4993032;28;20120;-74
2022/01/09 12:02:29;;;;;;;4.03;1.52;;;;;;;;;;4976411;28;20077;-76
2022/01/09 12:05:08;;;;;;;4.00;1.70;;;;;;;;;;5097168;27;20445;-76
2022/01/09 12:07:34;;;;;;;9.00;1.80;;;;;;;;;;5074798;28;20075;-74
2022/01/09 12:10:22;;;;;;;4.45;1.70;;;;;;;;;;5055568;28;20164;-76
2022/01/09 12:12:49;;;;;;;5.13;1.50;;;;;;;;;;5054229;28;20139;-72
2022/01/09 12:15:32;;;;;;;5.85;1.60;;;;;;;;;;5053678;28;20048;-75
2022/01/09 12:18:00;;;;;;;6.68;1.60;;;;;;;;;;5073137;28;20063;-70
2022/01/09 12:20:28;;;;;;;6.13;1.67;;;;;;;;;;5070459;28;20056;-69
2022/01/09 12:23:05;;;;;;;4.53;1.77;;;;;;;;;;5067904;28;20052;-75
2022/01/09 12:25:35;;;;;;;3.80;2.20;;;;;;;;;;5051084;28;20063;-77
2022/01/09 12:28:20;;;;;;;8.40;2.05;;;;;;;;;;5051763;28;20052;-76
2022/01/09 12:31:00;;;;;;;3.90;1.60;;;;;;;;;;5066578;28;20342;-81
2022/01/09 12:33:27;;;;;;;5.03;1.50;;;;;;;;;;5048454;28;20501;-74
2022/01/09 12:36:06;;;;;;;6.95;1.80;;;;;;;;;;5075872;28;20092;-73
2022/01/09 12:38:35;;;;;;;6.63;1.50;;;;;;;;;;5076420;28;20171;-76
2022/01/09 12:41:04;;;;;;;2.80;1.50;;;;;;;;;;5057713;28;20402;-75
2022/01/09 12:43:32;;;;;;;5.45;1.75;;;;;;;;;;5073564;28;20053;-72
2022/01/09 12:46:13;;;;;;;3.05;1.50;;;;;;;;;;5075623;28;20110;-72
2022/01/09 12:48:40;;;;;;;5.68;1.30;;;;;;;;;;5054306;28;20283;-71
2022/01/09 12:51:09;;;;;;;7.32;2.05;;;;;;;;;;5051665;28;20078;-73
2022/01/09 12:53:43;;;;;;;10.68;1.65;;;;;;;;;;5049948;28;20477;-77
2022/01/09 12:56:12;;;;;;;5.22;1.50;;;;;;;;;;5054924;28;20044;-76
2022/01/09 12:58:41;;;;;;;22.40;2.47;;;;;;;;;;5073271;28;20044;-68
2022/01/09 13:01:10;;;;;;;8.45;1.60;;;;;;;;;;5055357;28;20058;-72
2022/01/09 13:03:40;;;;;;;9.82;2.00;;;;;;;;;;5070366;28;20528;-70
2022/01/09 13:06:09;;;;;;;9.30;1.40;;;;;;;;;;5075130;28;20484;-78
2022/01/09 13:08:39;;;;;;;10.40;1.75;;;;;;;;;;5072949;28;20754;-74
2022/01/09 13:11:11;;;;;;;9.65;1.60;;;;;;;;;;5052476;28;20393;-75
2022/01/09 13:13:39;;;;;;;8.10;1.92;;;;;;;;;;5074363;28;20138;-80
2022/01/09 13:16:11;;;;;;;15.77;1.85;;;;;;;;;;5065467;28;20495;-73
2022/01/09 13:18:49;;;;;;;8.73;1.63;;;;;;;;;;5060904;28;20075;-84
2022/01/09 13:21:24;;;;;;;19.25;1.70;;;;;;;;;;5062557;28;20045;-72
2022/01/09 13:24:14;;;;;;;4.78;1.60;;;;;;;;;;5059148;28;20096;-78
2022/01/09 13:26:47;;;;;;;8.75;1.42;;;;;;;;;;5057335;28;20102;-74
2022/01/09 13:29:14;;;;;;;5.85;1.20;;;;;;;;;;5064693;28;20049;-75
2022/01/09 13:31:49;;;;;;;7.65;1.35;;;;;;;;;;5062255;28;20040;-72
2022/01/09 13:34:18;;;;;;;7.40;1.50;;;;;;;;;;5059135;28;20049;-77
2022/01/09 13:36:49;;;;;;;5.63;1.55;;;;;;;;;;5062214;28;20490;-70
2022/01/09 13:39:24;;;;;;;9.35;1.85;;;;;;;;;;5060941;28;20132;-71
2022/01/09 13:42:00;;;;;;;5.72;1.40;;;;;;;;;;5060826;28;20159;-77
2022/01/09 13:44:34;;;;;;;5.18;1.65;;;;;;;;;;5064594;28;20056;-71
2022/01/09 13:47:10;;;;;;;6.90;1.50;;;;;;;;;;5061682;28;20052;-76
2022/01/09 13:49:39;;;;;;;2.45;1.30;;;;;;;;;;5059701;28;20048;-72
2022/01/09 13:52:14;;;;;;;1.70;1.20;;;;;;;;;;5059492;28;21116;-79
2022/01/09 13:54:41;;;;;;;3.75;1.25;;;;;;;;;;5062148;28;20447;-79
2022/01/09 13:57:11;;;;;;;2.92;1.38;;;;;;;;;;5041324;28;20049;-69
2022/01/09 13:59:46;;;;;;;4.88;1.77;;;;;;;;;;5060225;28;20110;-77
2022/01/09 14:02:15;;;;;;;2.45;1.20;;;;;;;;;;5059072;28;20555;-76
2022/01/09 14:04:43;;;;;;;4.75;1.50;;;;;;;;;;5055947;28;20053;-76
2022/01/09 14:07:18;;;;;;;2.17;1.27;;;;;;;;;;5056939;28;20040;-73
2022/01/09 14:09:53;;;;;;;4.55;1.20;;;;;;;;;;5056761;28;20063;-72
2022/01/09 14:12:21;;;;;;;1.50;1.23;;;;;;;;;;5059193;28;20092;-72
2022/01/09 14:14:49;;;;;;;3.13;1.45;;;;;;;;;;5060195;28;20308;-68
2022/01/09 14:17:32;;;;;;;3.10;1.30;;;;;;;;;;5059836;28;20106;-68
2022/01/09 14:20:13;;;;;;;6.20;1.35;;;;;;;;;;5054112;28;20057;-79
2022/01/09 14:22:49;;;;;;;4.38;1.73;;;;;;;;;;5055764;28;20039;-77
2022/01/09 14:25:20;;;;;;;4.60;1.30;;;;;;;;;;5061343;28;20063;-77
2022/01/09 14:27:52;;;;;;;2.60;1.40;;;;;;;;;;5058042;28;20583;-78
2022/01/09 14:30:21;;;;;;;3.10;1.52;;;;;;;;;;5062145;28;20049;-69
2022/01/09 14:33:09;;;;;;;1.70;1.30;;;;;;;;;;5055479;28;20047;-71
2022/01/09 14:35:51;;;;;;;3.65;1.60;;;;;;;;;;5049684;28;20048;-72
2022/01/09 14:38:38;;;;;;;3.03;1.33;;;;;;;;;;5058208;28;20135;-76
2022/01/09 14:41:07;;;;;;;2.42;1.40;;;;;;;;;;5057204;28;20056;-77
2022/01/09 14:43:37;;;;;;;5.63;2.28;;;;;;;;;;5037000;28;20063;-73
2022/01/09 14:46:04;;;;;;;2.97;1.40;;;;;;;;;;5056084;28;20501;-76
2022/01/09 14:48:33;;;;;;;2.08;1.25;;;;;;;;;;5041408;28;20462;-70
2022/01/09 14:51:03;;;;;;;5.97;1.48;;;;;;;;;;5060338;28;20194;-79
2022/01/09 14:53:29;;;;;;;2.35;1.25;;;;;;;;;;5062022;28;20576;-77
2022/01/09 14:55:57;;;;;;;2.22;1.20;;;;;;;;;;5061788;28;20095;-68
2022/01/09 14:58:24;;;;;;;4.18;1.40;;;;;;;;;;5053581;28;20488;-73
2022/01/09 15:00:51;;;;;;;1.98;1.20;;;;;;;;;;5043394;28;20044;-75
2022/01/09 15:03:19;;;;;;;3.30;1.20;;;;;;;;;;5059438;28;20075;-83
2022/01/09 15:05:46;;;;;;;2.17;1.17;;;;;;;;;;5062883;28;20040;-73
2022/01/09 15:08:16;;;;;;;3.65;1.38;;;;;;;;;;5059792;28;20493;-78
2022/01/09 15:10:44;;;;;;;5.63;1.20;;;;;;;;;;5060520;28;20048;-70
2022/01/09 15:13:12;;;;;;;2.70;1.30;;;;;;;;;;5056820;28;20059;-74